sensor_id;sensor_type;location;lat;lon;timestamp;pressure;altitude;pressure_sealevel;temperature
61977;BMP280;45905;50.570;10.428;2023-02-01T00:01:07;98102.81;;;4.72
61977;BMP280;45905;50.570;10.428;2023-02-01T00:03:34;98111.94;;;4.73
61977;BMP280;45905;50.570;10.428;2023-02-01T00:06:02;98105.97;;;4.74
61977;BMP280;45905;50.570;10.428;2023-02-01T00:08:29;98119.91;;;4.77
61977;BMP280;45905;50.570;10.428;2023-02-01T00:11:06;98116.38;;;4.80
61977;BMP280;45905;50.570;10.428;2023-02-01T00:13:36;98124.00;;;4.78
61977;BMP280;45905;50.570;10.428;2023-02-01T00:16:32;98127.22;;;4.80
61977;BMP280;45905;50.570;10.428;2023-02-01T00:21:29;98116.91;;;4.83
61977;BMP280;45905;50.570;10.428;2023-02-01T00:23:57;98118.50;;;4.84
61977;BMP280;45905;50.570;10.428;2023-02-01T00:26:43;98112.59;;;4.85
61977;BMP280;45905;50.570;10.428;2023-02-01T00:29:15;98105.97;;;4.84
61977;BMP280;45905;50.570;10.428;2023-02-01T00:31:43;98104.38;;;4.83
61977;BMP280;45905;50.570;10.428;2023-02-01T00:34:16;98103.47;;;4.84
61977;BMP280;45905;50.570;10.428;2023-02-01T00:36:44;98098.53;;;4.83
61977;BMP280;45905;50.570;10.428;2023-02-01T00:39:12;98094.31;;;4.83
61977;BMP280;45905;50.570;10.428;2023-02-01T00:41:39;98096.03;;;4.83
61977;BMP280;45905;50.570;10.428;2023-02-01T00:44:07;98094.44;;;4.82
61977;BMP280;45905;50.570;10.428;2023-02-01T00:46:34;98092.88;;;4.81
61977;BMP280;45905;50.570;10.428;2023-02-01T00:49:02;98098.81;;;4.80
61977;BMP280;45905;50.570;10.428;2023-02-01T00:51:30;98103.47;;;4.74
61977;BMP280;45905;50.570;10.428;2023-02-01T00:53:57;98107.56;;;4.75
61977;BMP280;45905;50.570;10.428;2023-02-01T00:56:25;98103.72;;;4.71
61977;BMP280;45905;50.570;10.428;2023-02-01T00:58:54;98105.53;;;4.69
61977;BMP280;45905;50.570;10.428;2023-02-01T01:01:25;98090.69;;;4.66
61977;BMP280;45905;50.570;10.428;2023-02-01T01:03:57;98104.41;;;4.62
61977;BMP280;45905;50.570;10.428;2023-02-01T01:06:31;98104.50;;;4.60
61977;BMP280;45905;50.570;10.428;2023-02-01T01:09:01;98110.53;;;4.58
61977;BMP280;45905;50.570;10.428;2023-02-01T01:11:32;98109.19;;;4.54
61977;BMP280;45905;50.570;10.428;2023-02-01T01:14:01;98104.28;;;4.53
61977;BMP280;45905;50.570;10.428;2023-02-01T01:16:30;98113.03;;;4.47
61977;BMP280;45905;50.570;10.428;2023-02-01T01:18:58;98113.03;;;4.47
61977;BMP280;45905;50.570;10.428;2023-02-01T01:21:26;98106.69;;;4.43
61977;BMP280;45905;50.570;10.428;2023-02-01T01:23:54;98110.88;;;4.43
61977;BMP280;45905;50.570;10.428;2023-02-01T01:26:26;98100.06;;;4.42
61977;BMP280;45905;50.570;10.428;2023-02-01T01:28:59;98105.97;;;4.41
61977;BMP280;45905;50.570;10.428;2023-02-01T01:31:26;98098.25;;;4.44
61977;BMP280;45905;50.570;10.428;2023-02-01T01:33:57;98089.00;;;4.45
61977;BMP280;45905;50.570;10.428;2023-02-01T01:36:26;98089.81;;;4.45
61977;BMP280;45905;50.570;10.428;2023-02-01T01:38:54;98082.94;;;4.47
61977;BMP280;45905;50.570;10.428;2023-02-01T01:41:31;98077.38;;;4.44
61977;BMP280;45905;50.570;10.428;2023-02-01T01:47:47;98058.56;;;4.49
61977;BMP280;45905;50.570;10.428;2023-02-01T01:50:22;98063.47;;;4.51
61977;BMP280;45905;50.570;10.428;2023-02-01T01:52:53;98067.69;;;4.50
61977;BMP280;45905;50.570;10.428;2023-02-01T01:55:24;98064.47;;;4.48
61977;BMP280;45905;50.570;10.428;2023-02-01T01:58:08;98062.06;;;4.47
61977;BMP280;45905;50.570;10.428;2023-02-01T02:00:37;98070.41;;;4.47
61977;BMP280;45905;50.570;10.428;2023-02-01T02:03:19;98080.31;;;4.49
61977;BMP280;45905;50.570;10.428;2023-02-01T02:05:50;98066.88;;;4.50
61977;BMP280;45905;50.570;10.428;2023-02-01T02:08:19;98092.97;;;4.47
61977;BMP280;45905;50.570;10.428;2023-02-01T02:10:51;98079.88;;;4.44
61977;BMP280;45905;50.570;10.428;2023-02-01T02:13:35;98066.53;;;4.43
61977;BMP280;45905;50.570;10.428;2023-02-01T02:16:40;98049.69;;;4.45
61977;BMP280;45905;50.570;10.428;2023-02-01T02:22:33;98043.97;;;4.43
61977;BMP280;45905;50.570;10.428;2023-02-01T02:38:22;98024.34;;;4.48
61977;BMP280;45905;50.570;10.428;2023-02-01T02:41:13;98038.47;;;4.49
61977;BMP280;45905;50.570;10.428;2023-02-01T02:44:13;98036.78;;;4.50
61977;BMP280;45905;50.570;10.428;2023-02-01T02:50:32;98026.97;;;4.47
61977;BMP280;45905;50.570;10.428;2023-02-01T02:56:20;98021.72;;;4.50
61977;BMP280;45905;50.570;10.428;2023-02-01T02:59:12;98030.06;;;4.50
61977;BMP280;45905;50.570;10.428;2023-02-01T03:01:58;98024.81;;;4.53
61977;BMP280;45905;50.570;10.428;2023-02-01T03:04:44;98037.25;;;4.55
61977;BMP280;45905;50.570;10.428;2023-02-01T03:07:53;98019.78;;;4.53
61977;BMP280;45905;50.570;10.428;2023-02-01T03:13:25;98023.00;;;4.55
61977;BMP280;45905;50.570;10.428;2023-02-01T03:16:20;97992.75;;;4.56
61977;BMP280;45905;50.570;10.428;2023-02-01T03:19:15;97973.25;;;4.60
61977;BMP280;45905;50.570;10.428;2023-02-01T03:21:55;97988.88;;;4.63
61977;BMP280;45905;50.570;10.428;2023-02-01T03:27:34;97993.41;;;4.69
61977;BMP280;45905;50.570;10.428;2023-02-01T03:30:14;98000.84;;;4.71
61977;BMP280;45905;50.570;10.428;2023-02-01T03:32:50;97988.28;;;4.71
61977;BMP280;45905;50.570;10.428;2023-02-01T03:44:02;97980.06;;;4.79
61977;BMP280;45905;50.570;10.428;2023-02-01T03:46:42;97987.31;;;4.82
61977;BMP280;45905;50.570;10.428;2023-02-01T03:49:35;97992.34;;;4.82
61977;BMP280;45905;50.570;10.428;2023-02-01T03:52:11;97993.28;;;4.81
61977;BMP280;45905;50.570;10.428;2023-02-01T03:54:43;97993.28;;;4.81
61977;BMP280;45905;50.570;10.428;2023-02-01T03:57:16;97999.88;;;4.82
61977;BMP280;45905;50.570;10.428;2023-02-01T03:59:47;97984.81;;;4.82
61977;BMP280;45905;50.570;10.428;2023-02-01T04:02:15;98009.78;;;4.84
61977;BMP280;45905;50.570;10.428;2023-02-01T04:04:43;98011.19;;;4.77
61977;BMP280;45905;50.570;10.428;2023-02-01T04:07:13;97991.72;;;4.70
61977;BMP280;45905;50.570;10.428;2023-02-01T04:09:40;98009.19;;;4.60
61977;BMP280;45905;50.570;10.428;2023-02-01T04:12:07;97991.50;;;4.62
61977;BMP280;45905;50.570;10.428;2023-02-01T04:14:34;98000.47;;;4.64
61977;BMP280;45905;50.570;10.428;2023-02-01T04:17:01;98000.16;;;4.58
61977;BMP280;45905;50.570;10.428;2023-02-01T04:19:28;98001.97;;;4.56
61977;BMP280;45905;50.570;10.428;2023-02-01T04:21:56;97992.53;;;4.59
61977;BMP280;45905;50.570;10.428;2023-02-01T04:24:23;97988.53;;;4.57
61977;BMP280;45905;50.570;10.428;2023-02-01T04:26:50;97988.00;;;4.54
61977;BMP280;45905;50.570;10.428;2023-02-01T04:29:17;97985.13;;;4.47
61977;BMP280;45905;50.570;10.428;2023-02-01T04:31:44;97977.06;;;4.44
61977;BMP280;45905;50.570;10.428;2023-02-01T04:34:13;97983.56;;;4.36
61977;BMP280;45905;50.570;10.428;2023-02-01T04:36:40;97981.28;;;4.33
61977;BMP280;45905;50.570;10.428;2023-02-01T04:39:09;97978.88;;;4.31
61977;BMP280;45905;50.570;10.428;2023-02-01T04:41:36;97980.59;;;4.31
61977;BMP280;45905;50.570;10.428;2023-02-01T04:44:04;97977.44;;;4.29
61977;BMP280;45905;50.570;10.428;2023-02-01T04:46:31;97980.69;;;4.29
61977;BMP280;45905;50.570;10.428;2023-02-01T04:48:58;97976.72;;;4.27
61977;BMP280;45905;50.570;10.428;2023-02-01T04:51:25;97976.03;;;4.25
61977;BMP280;45905;50.570;10.428;2023-02-01T04:53:52;97967.41;;;4.29
61977;BMP280;45905;50.570;10.428;2023-02-01T04:56:21;97959.72;;;4.30
61977;BMP280;45905;50.570;10.428;2023-02-01T04:58:48;97960.31;;;4.34
61977;BMP280;45905;50.570;10.428;2023-02-01T05:01:16;97948.44;;;4.36
61977;BMP280;45905;50.570;10.428;2023-02-01T05:03:43;97945.94;;;4.36
61977;BMP280;45905;50.570;10.428;2023-02-01T05:06:10;97944.78;;;4.39
61977;BMP280;45905;50.570;10.428;2023-02-01T05:08:38;97934.53;;;4.42
61977;BMP280;45905;50.570;10.428;2023-02-01T05:11:05;97934.63;;;4.41
61977;BMP280;45905;50.570;10.428;2023-02-01T05:13:32;97934.75;;;4.39
61977;BMP280;45905;50.570;10.428;2023-02-01T05:16:17;97929.75;;;4.39
61977;BMP280;45905;50.570;10.428;2023-02-01T05:18:45;97932.34;;;4.38
61977;BMP280;45905;50.570;10.428;2023-02-01T05:21:12;97924.28;;;4.35
61977;BMP280;45905;50.570;10.428;2023-02-01T05:23:39;97923.13;;;4.38
61977;BMP280;45905;50.570;10.428;2023-02-01T05:26:25;97930.53;;;4.40
61977;BMP280;45905;50.570;10.428;2023-02-01T05:28:52;97923.69;;;4.42
61977;BMP280;45905;50.570;10.428;2023-02-01T05:31:19;97916.06;;;4.43
61977;BMP280;45905;50.570;10.428;2023-02-01T05:33:47;97918.34;;;4.46
61977;BMP280;45905;50.570;10.428;2023-02-01T05:36:15;97918.19;;;4.48
61977;BMP280;45905;50.570;10.428;2023-02-01T05:38:42;97915.69;;;4.48
61977;BMP280;45905;50.570;10.428;2023-02-01T05:41:09;97923.09;;;4.49
61977;BMP280;45905;50.570;10.428;2023-02-01T05:43:36;97928.69;;;4.53
61977;BMP280;45905;50.570;10.428;2023-02-01T05:46:04;97930.53;;;4.51
61977;BMP280;45905;50.570;10.428;2023-02-01T05:48:31;97934.72;;;4.50
61977;BMP280;45905;50.570;10.428;2023-02-01T05:50:58;97929.00;;;4.59
61977;BMP280;45905;50.570;10.428;2023-02-01T05:53:25;97939.63;;;4.62
61977;BMP280;45905;50.570;10.428;2023-02-01T05:55:53;97931.19;;;4.63
61977;BMP280;45905;50.570;10.428;2023-02-01T05:58:20;97931.03;;;4.65
61977;BMP280;45905;50.570;10.428;2023-02-01T06:00:47;97929.47;;;4.64
61977;BMP280;45905;50.570;10.428;2023-02-01T06:03:14;97936.84;;;4.65
61977;BMP280;45905;50.570;10.428;2023-02-01T06:05:44;97934.34;;;4.65
61977;BMP280;45905;50.570;10.428;2023-02-01T06:08:13;97930.00;;;4.67
61977;BMP280;45905;50.570;10.428;2023-02-01T06:10:40;97929.22;;;4.67
61977;BMP280;45905;50.570;10.428;2023-02-01T06:13:07;97927.63;;;4.66
61977;BMP280;45905;50.570;10.428;2023-02-01T06:15:35;97918.63;;;4.63
61977;BMP280;45905;50.570;10.428;2023-02-01T06:18:04;97919.66;;;4.61
61977;BMP280;45905;50.570;10.428;2023-02-01T06:20:31;97925.38;;;4.63
61977;BMP280;45905;50.570;10.428;2023-02-01T06:22:58;97921.25;;;4.62
61977;BMP280;45905;50.570;10.428;2023-02-01T06:25:25;97919.53;;;4.62
61977;BMP280;45905;50.570;10.428;2023-02-01T06:27:53;97923.75;;;4.62
61977;BMP280;45905;50.570;10.428;2023-02-01T06:30:20;97922.97;;;4.61
61977;BMP280;45905;50.570;10.428;2023-02-01T06:32:51;97921.25;;;4.62
61977;BMP280;45905;50.570;10.428;2023-02-01T06:35:21;97914.66;;;4.61
61977;BMP280;45905;50.570;10.428;2023-02-01T06:37:48;97911.22;;;4.62
61977;BMP280;45905;50.570;10.428;2023-02-01T06:40:15;97923.09;;;4.60
61977;BMP280;45905;50.570;10.428;2023-02-01T06:42:42;97911.56;;;4.57
61977;BMP280;45905;50.570;10.428;2023-02-01T06:45:10;97910.09;;;4.55
61977;BMP280;45905;50.570;10.428;2023-02-01T06:47:37;97921.72;;;4.56
61977;BMP280;45905;50.570;10.428;2023-02-01T06:50:05;97918.28;;;4.57
61977;BMP280;45905;50.570;10.428;2023-02-01T06:52:32;97924.91;;;4.58
61977;BMP280;45905;50.570;10.428;2023-02-01T06:54:59;97924.91;;;4.58
61977;BMP280;45905;50.570;10.428;2023-02-01T06:57:26;97913.28;;;4.57
61977;BMP280;45905;50.570;10.428;2023-02-01T06:59:57;97928.91;;;4.60
61977;BMP280;45905;50.570;10.428;2023-02-01T07:02:25;97928.91;;;4.60
61977;BMP280;45905;50.570;10.428;2023-02-01T07:04:52;97918.06;;;4.60
61977;BMP280;45905;50.570;10.428;2023-02-01T07:07:19;97919.53;;;4.62
61977;BMP280;45905;50.570;10.428;2023-02-01T07:09:49;97926.28;;;4.62
61977;BMP280;45905;50.570;10.428;2023-02-01T07:12:16;97916.94;;;4.64
61977;BMP280;45905;50.570;10.428;2023-02-01T07:14:43;97918.50;;;4.65
61977;BMP280;45905;50.570;10.428;2023-02-01T07:17:11;97915.75;;;4.68
61977;BMP280;45905;50.570;10.428;2023-02-01T07:19:38;97914.16;;;4.67
61977;BMP280;45905;50.570;10.428;2023-02-01T07:22:05;97917.34;;;4.69
61977;BMP280;45905;50.570;10.428;2023-02-01T07:24:34;97919.63;;;4.72
61977;BMP280;45905;50.570;10.428;2023-02-01T07:27:01;97916.75;;;4.76
61977;BMP280;45905;50.570;10.428;2023-02-01T07:29:28;97915.03;;;4.76
61977;BMP280;45905;50.570;10.428;2023-02-01T07:31:55;97920.50;;;4.81
61977;BMP280;45905;50.570;10.428;2023-02-01T07:34:22;97908.88;;;4.80
61977;BMP280;45905;50.570;10.428;2023-02-01T07:36:49;97892.09;;;4.81
61977;BMP280;45905;50.570;10.428;2023-02-01T07:39:16;97920.50;;;4.81
61977;BMP280;45905;50.570;10.428;2023-02-01T07:41:43;97915.22;;;4.84
61977;BMP280;45905;50.570;10.428;2023-02-01T07:44:12;97922.53;;;4.87
61977;BMP280;45905;50.570;10.428;2023-02-01T07:46:39;97924.13;;;4.88
61977;BMP280;45905;50.570;10.428;2023-02-01T07:49:07;97924.44;;;4.94
61977;BMP280;45905;50.570;10.428;2023-02-01T07:51:34;97945.31;;;4.95
61977;BMP280;45905;50.570;10.428;2023-02-01T07:54:01;97941.09;;;4.95
61977;BMP280;45905;50.570;10.428;2023-02-01T07:56:28;97947.59;;;4.98
61977;BMP280;45905;50.570;10.428;2023-02-01T07:58:55;97936.63;;;4.99
61977;BMP280;45905;50.570;10.428;2023-02-01T08:01:26;97936.38;;;5.02
61977;BMP280;45905;50.570;10.428;2023-02-01T08:03:59;97948.13;;;5.01
61977;BMP280;45905;50.570;10.428;2023-02-01T08:06:31;97927.94;;;5.03
61977;BMP280;45905;50.570;10.428;2023-02-01T08:08:59;97933.75;;;5.03
61977;BMP280;45905;50.570;10.428;2023-02-01T08:11:27;97926.09;;;5.05
61977;BMP280;45905;50.570;10.428;2023-02-01T08:13:54;97925.31;;;5.04
61977;BMP280;45905;50.570;10.428;2023-02-01T08:16:23;97937.97;;;5.03
61977;BMP280;45905;50.570;10.428;2023-02-01T08:18:52;97934.31;;;5.07
61977;BMP280;45905;50.570;10.428;2023-02-01T08:21:23;97939.19;;;5.08
61977;BMP280;45905;50.570;10.428;2023-02-01T08:23:52;97946.97;;;5.05
61977;BMP280;45905;50.570;10.428;2023-02-01T08:26:23;97950.94;;;5.08
61977;BMP280;45905;50.570;10.428;2023-02-01T08:28:56;97949.91;;;5.10
61977;BMP280;45905;50.570;10.428;2023-02-01T08:31:27;97942.25;;;5.12
61977;BMP280;45905;50.570;10.428;2023-02-01T08:33:59;97935.88;;;5.08
61977;BMP280;45905;50.570;10.428;2023-02-01T08:36:29;97948.31;;;5.09
61977;BMP280;45905;50.570;10.428;2023-02-01T08:38:57;97930.75;;;5.09
61977;BMP280;45905;50.570;10.428;2023-02-01T08:41:29;97946.50;;;5.11
61977;BMP280;45905;50.570;10.428;2023-02-01T08:43:57;97928.00;;;5.12
61977;BMP280;45905;50.570;10.428;2023-02-01T08:46:25;97947.97;;;5.13
61977;BMP280;45905;50.570;10.428;2023-02-01T08:48:52;97946.38;;;5.13
61977;BMP280;45905;50.570;10.428;2023-02-01T08:51:22;97958.69;;;5.15
61977;BMP280;45905;50.570;10.428;2023-02-01T08:53:50;97955.13;;;5.18
61977;BMP280;45905;50.570;10.428;2023-02-01T08:56:19;97943.38;;;5.18
61977;BMP280;45905;50.570;10.428;2023-02-01T08:58:46;97952.59;;;5.18
61977;BMP280;45905;50.570;10.428;2023-02-01T09:01:16;97955.69;;;5.21
61977;BMP280;45905;50.570;10.428;2023-02-01T09:03:44;97956.25;;;5.25
61977;BMP280;45905;50.570;10.428;2023-02-01T09:06:14;97966.16;;;5.26
61977;BMP280;45905;50.570;10.428;2023-02-01T09:08:42;97950.28;;;5.26
61977;BMP280;45905;50.570;10.428;2023-02-01T09:11:17;97972.41;;;5.32
61977;BMP280;45905;50.570;10.428;2023-02-01T09:13:47;97961.56;;;5.31
61977;BMP280;45905;50.570;10.428;2023-02-01T09:16:14;97970.44;;;5.35
61977;BMP280;45905;50.570;10.428;2023-02-01T09:18:42;97973.09;;;5.33
61977;BMP280;45905;50.570;10.428;2023-02-01T09:21:30;97981.56;;;5.32
61977;BMP280;45905;50.570;10.428;2023-02-01T09:23:57;97975.34;;;5.36
61977;BMP280;45905;50.570;10.428;2023-02-01T09:26:24;97968.63;;;5.37
61977;BMP280;45905;50.570;10.428;2023-02-01T09:28:59;97983.44;;;5.40
61977;BMP280;45905;50.570;10.428;2023-02-01T09:31:27;97992.59;;;5.41
61977;BMP280;45905;50.570;10.428;2023-02-01T09:33:54;97997.72;;;5.39
61977;BMP280;45905;50.570;10.428;2023-02-01T09:36:21;97986.66;;;5.42
61977;BMP280;45905;50.570;10.428;2023-02-01T09:38:50;98001.34;;;5.46
61977;BMP280;45905;50.570;10.428;2023-02-01T09:47:20;98009.19;;;5.52
61977;BMP280;45905;50.570;10.428;2023-02-01T09:50:19;98007.34;;;5.54
61977;BMP280;45905;50.570;10.428;2023-02-01T09:52:57;98017.97;;;5.58
61977;BMP280;45905;50.570;10.428;2023-02-01T09:55:41;98013.97;;;5.55
61977;BMP280;45905;50.570;10.428;2023-02-01T09:58:42;98021.81;;;5.62
61977;BMP280;45905;50.570;10.428;2023-02-01T10:01:23;98022.47;;;5.64
61977;BMP280;45905;50.570;10.428;2023-02-01T10:04:02;98023.19;;;5.66
61977;BMP280;45905;50.570;10.428;2023-02-01T10:07:11;98025.47;;;5.69
61977;BMP280;45905;50.570;10.428;2023-02-01T10:15:34;98043.38;;;5.75
61977;BMP280;45905;50.570;10.428;2023-02-01T10:27:08;98036.50;;;5.77
61977;BMP280;45905;50.570;10.428;2023-02-01T10:29:44;98028.69;;;5.80
61977;BMP280;45905;50.570;10.428;2023-02-01T10:32:20;98021.03;;;5.81
61977;BMP280;45905;50.570;10.428;2023-02-01T10:34:59;98023.66;;;5.80
61977;BMP280;45905;50.570;10.428;2023-02-01T10:37:32;98035.81;;;5.75
61977;BMP280;45905;50.570;10.428;2023-02-01T10:42:41;98016.63;;;5.74
61977;BMP280;45905;50.570;10.428;2023-02-01T10:45:25;98029.31;;;5.72
61977;BMP280;45905;50.570;10.428;2023-02-01T10:47:56;98016.41;;;5.77
61977;BMP280;45905;50.570;10.428;2023-02-01T10:50:41;98011.22;;;5.78
61977;BMP280;45905;50.570;10.428;2023-02-01T10:53:24;98017.44;;;5.74
61977;BMP280;45905;50.570;10.428;2023-02-01T10:55:55;98018.72;;;5.69
61977;BMP280;45905;50.570;10.428;2023-02-01T10:58:32;98013.03;;;5.67
61977;BMP280;45905;50.570;10.428;2023-02-01T11:01:17;98003.97;;;5.65
61977;BMP280;45905;50.570;10.428;2023-02-01T11:06:45;98007.09;;;5.68
61977;BMP280;45905;50.570;10.428;2023-02-01T11:09:21;98005.59;;;5.66
61977;BMP280;45905;50.570;10.428;2023-02-01T11:14:39;98004.03;;;5.54
61977;BMP280;45905;50.570;10.428;2023-02-01T11:20:17;98005.63;;;5.55
61977;BMP280;45905;50.570;10.428;2023-02-01T11:22:55;98003.72;;;5.48
61977;BMP280;45905;50.570;10.428;2023-02-01T11:25:24;98000.53;;;5.46
61977;BMP280;45905;50.570;10.428;2023-02-01T11:27:55;98003.44;;;5.41
61977;BMP280;45905;50.570;10.428;2023-02-01T11:30:38;98009.00;;;5.45
61977;BMP280;45905;50.570;10.428;2023-02-01T11:33:16;97994.03;;;5.43
61977;BMP280;45905;50.570;10.428;2023-02-01T11:35:45;97987.28;;;5.44
61977;BMP280;45905;50.570;10.428;2023-02-01T11:38:25;97989.56;;;5.47
61977;BMP280;45905;50.570;10.428;2023-02-01T11:40:53;98000.31;;;5.49
61977;BMP280;45905;50.570;10.428;2023-02-01T11:43:26;97984.56;;;5.47
61977;BMP280;45905;50.570;10.428;2023-02-01T11:46:00;97990.50;;;5.46
61977;BMP280;45905;50.570;10.428;2023-02-01T11:48:31;97985.97;;;5.40
61977;BMP280;45905;50.570;10.428;2023-02-01T11:54:20;97983.19;;;5.43
61977;BMP280;45905;50.570;10.428;2023-02-01T12:00:32;97965.19;;;5.38
61977;BMP280;45905;50.570;10.428;2023-02-01T12:20:50;97953.31;;;5.40
61977;BMP280;45905;50.570;10.428;2023-02-01T12:23:37;97950.41;;;5.44
61977;BMP280;45905;50.570;10.428;2023-02-01T12:37:47;97942.75;;;5.46
61977;BMP280;45905;50.570;10.428;2023-02-01T12:46:41;97937.38;;;5.50
61977;BMP280;45905;50.570;10.428;2023-02-01T12:49:31;97948.88;;;5.52
61977;BMP280;45905;50.570;10.428;2023-02-01T12:52:23;97910.41;;;5.52
61977;BMP280;45905;50.570;10.428;2023-02-01T12:57:37;97925.34;;;5.53
61977;BMP280;45905;50.570;10.428;2023-02-01T13:03:26;97910.59;;;5.60
61977;BMP280;45905;50.570;10.428;2023-02-01T13:06:13;97906.59;;;5.57
61977;BMP280;45905;50.570;10.428;2023-02-01T13:09:02;97902.38;;;5.58
61977;BMP280;45905;50.570;10.428;2023-02-01T13:11:36;97891.25;;;5.60
61977;BMP280;45905;50.570;10.428;2023-02-01T13:16:48;97891.72;;;5.65
61977;BMP280;45905;50.570;10.428;2023-02-01T13:19:24;97894.00;;;5.68
61977;BMP280;45905;50.570;10.428;2023-02-01T13:22:35;97874.13;;;5.65
61977;BMP280;45905;50.570;10.428;2023-02-01T13:28:52;97880.13;;;5.73
61977;BMP280;45905;50.570;10.428;2023-02-01T13:31:57;97889.25;;;5.74
61977;BMP280;45905;50.570;10.428;2023-02-01T13:38:01;97895.25;;;5.83
61977;BMP280;45905;50.570;10.428;2023-02-01T13:40:37;97881.63;;;5.85
61977;BMP280;45905;50.570;10.428;2023-02-01T13:43:14;97875.81;;;5.85
61977;BMP280;45905;50.570;10.428;2023-02-01T13:45:50;97868.25;;;5.85
61977;BMP280;45905;50.570;10.428;2023-02-01T13:48:25;97870.78;;;5.85
61977;BMP280;45905;50.570;10.428;2023-02-01T13:50:57;97867.59;;;5.83
61977;BMP280;45905;50.570;10.428;2023-02-01T13:53:36;97865.75;;;5.85
61977;BMP280;45905;50.570;10.428;2023-02-01T13:56:13;97857.41;;;5.84
61977;BMP280;45905;50.570;10.428;2023-02-01T13:58:44;97844.84;;;5.84
61977;BMP280;45905;50.570;10.428;2023-02-01T14:03:55;97846.97;;;5.89
61977;BMP280;45905;50.570;10.428;2023-02-01T14:09:15;97843.53;;;5.90
61977;BMP280;45905;50.570;10.428;2023-02-01T14:11:52;97845.00;;;5.92
61977;BMP280;45905;50.570;10.428;2023-02-01T14:14:37;97851.50;;;5.94
61977;BMP280;45905;50.570;10.428;2023-02-01T14:19:38;97811.41;;;6.02
61977;BMP280;45905;50.570;10.428;2023-02-01T14:24:52;97813.13;;;6.02
61977;BMP280;45905;50.570;10.428;2023-02-01T14:28:21;97795.94;;;6.07
61977;BMP280;45905;50.570;10.428;2023-02-01T14:30:51;97815.00;;;6.09
61977;BMP280;45905;50.570;10.428;2023-02-01T14:33:23;97810.34;;;6.05
61977;BMP280;45905;50.570;10.428;2023-02-01T14:36:05;97809.81;;;6.01
61977;BMP280;45905;50.570;10.428;2023-02-01T14:38:36;97801.47;;;6.01
61977;BMP280;45905;50.570;10.428;2023-02-01T14:47:10;97794.63;;;6.03
61977;BMP280;45905;50.570;10.428;2023-02-01T14:53:03;97806.09;;;6.05
61977;BMP280;45905;50.570;10.428;2023-02-01T14:55:54;97798.19;;;6.00
61977;BMP280;45905;50.570;10.428;2023-02-01T15:01:31;97795.75;;;5.90
61977;BMP280;45905;50.570;10.428;2023-02-01T15:04:13;97811.78;;;5.89
61977;BMP280;45905;50.570;10.428;2023-02-01T15:06:57;97812.56;;;5.89
61977;BMP280;45905;50.570;10.428;2023-02-01T15:09:34;97816.78;;;5.89
61977;BMP280;45905;50.570;10.428;2023-02-01T15:15:15;97807.66;;;5.88
61977;BMP280;45905;50.570;10.428;2023-02-01T15:17:56;97809.38;;;5.87
61977;BMP280;45905;50.570;10.428;2023-02-01T15:20:31;97805.44;;;5.85
61977;BMP280;45905;50.570;10.428;2023-02-01T15:23:14;97807.03;;;5.86
61977;BMP280;45905;50.570;10.428;2023-02-01T15:25:46;97792.97;;;5.83
61977;BMP280;45905;50.570;10.428;2023-02-01T15:28:15;97793.66;;;5.85
61977;BMP280;45905;50.570;10.428;2023-02-01T15:31:01;97792.19;;;5.83
61977;BMP280;45905;50.570;10.428;2023-02-01T15:33:30;97794.28;;;5.87
61977;BMP280;45905;50.570;10.428;2023-02-01T15:36:11;97787.44;;;5.89
61977;BMP280;45905;50.570;10.428;2023-02-01T15:38:45;97791.00;;;5.87
61977;BMP280;45905;50.570;10.428;2023-02-01T15:41:20;97790.75;;;5.90
61977;BMP280;45905;50.570;10.428;2023-02-01T15:46:30;97781.59;;;5.89
61977;BMP280;45905;50.570;10.428;2023-02-01T15:48:58;97787.81;;;5.85
61977;BMP280;45905;50.570;10.428;2023-02-01T15:51:30;97789.53;;;5.84
61977;BMP280;45905;50.570;10.428;2023-02-01T15:54:07;97782.69;;;5.86
61977;BMP280;45905;50.570;10.428;2023-02-01T15:56:40;97790.34;;;5.85
61977;BMP280;45905;50.570;10.428;2023-02-01T15:59:17;97789.41;;;5.86
61977;BMP280;45905;50.570;10.428;2023-02-01T16:01:46;97801.84;;;5.87
61977;BMP280;45905;50.570;10.428;2023-02-01T16:04:26;97803.06;;;5.92
61977;BMP280;45905;50.570;10.428;2023-02-01T16:07:02;97786.38;;;5.91
61977;BMP280;45905;50.570;10.428;2023-02-01T16:09:54;97787.31;;;5.90
61977;BMP280;45905;50.570;10.428;2023-02-01T16:12:44;97780.94;;;5.87
61977;BMP280;45905;50.570;10.428;2023-02-01T16:15:13;97803.56;;;5.87
61977;BMP280;45905;50.570;10.428;2023-02-01T16:17:40;97819.28;;;5.79
61977;BMP280;45905;50.570;10.428;2023-02-01T16:20:08;97793.06;;;5.72
61977;BMP280;45905;50.570;10.428;2023-02-01T16:22:36;97808.28;;;5.71
61977;BMP280;45905;50.570;10.428;2023-02-01T16:25:03;97812.78;;;5.68
61977;BMP280;45905;50.570;10.428;2023-02-01T16:27:31;97814.63;;;5.66
61977;BMP280;45905;50.570;10.428;2023-02-01T16:29:58;97831.41;;;5.65
61977;BMP280;45905;50.570;10.428;2023-02-01T16:32:25;97827.19;;;5.66
61977;BMP280;45905;50.570;10.428;2023-02-01T16:34:53;97827.28;;;5.64
61977;BMP280;45905;50.570;10.428;2023-02-01T16:37:23;97830.94;;;5.60
61977;BMP280;45905;50.570;10.428;2023-02-01T16:39:51;97829.91;;;5.63
61977;BMP280;45905;50.570;10.428;2023-02-01T16:42:18;97844.19;;;5.62
61977;BMP280;45905;50.570;10.428;2023-02-01T16:44:46;97842.88;;;5.58
61977;BMP280;45905;50.570;10.428;2023-02-01T16:47:22;97853.56;;;5.60
61977;BMP280;45905;50.570;10.428;2023-02-01T16:49:50;97853.16;;;5.55
61977;BMP280;45905;50.570;10.428;2023-02-01T16:52:24;97833.25;;;5.43
61977;BMP280;45905;50.570;10.428;2023-02-01T16:54:51;97843.19;;;5.45
61977;BMP280;45905;50.570;10.428;2023-02-01T16:57:20;97843.03;;;5.37
61977;BMP280;45905;50.570;10.428;2023-02-01T16:59:50;97846.72;;;5.33
61977;BMP280;45905;50.570;10.428;2023-02-01T17:02:19;97842.84;;;5.29
61977;BMP280;45905;50.570;10.428;2023-02-01T17:04:46;97847.75;;;5.31
61977;BMP280;45905;50.570;10.428;2023-02-01T17:07:17;97840.91;;;5.32
61977;BMP280;45905;50.570;10.428;2023-02-01T17:09:46;97855.19;;;5.32
61977;BMP280;45905;50.570;10.428;2023-02-01T17:12:30;97849.88;;;5.35
61977;BMP280;45905;50.570;10.428;2023-02-01T17:14:59;97834.16;;;5.33
61977;BMP280;45905;50.570;10.428;2023-02-01T17:17:34;97842.34;;;5.35
61977;BMP280;45905;50.570;10.428;2023-02-01T17:20:05;97842.09;;;5.38
61977;BMP280;45905;50.570;10.428;2023-02-01T17:22:33;97839.59;;;5.38
61977;BMP280;45905;50.570;10.428;2023-02-01T17:25:01;97848.34;;;5.43